createdAt,value
2023-05-21T00:01:07.515Z,101084.38
2023-05-21T00:03:36.502Z,101078.47
2023-05-21T00:06:03.813Z,101067.41
2023-05-21T00:08:30.991Z,101064.66
2023-05-21T00:10:57.596Z,101061.66
2023-05-21T00:13:24.170Z,101069.16
2023-05-21T00:15:51.104Z,101060.09
2023-05-21T00:18:18.159Z,101060.38
2023-05-21T00:20:45.676Z,101055.69
2023-05-21T00:23:12.348Z,101054.38
2023-05-21T00:25:39.071Z,101048.06
2023-05-21T00:28:05.788Z,101044.69
2023-05-21T00:30:32.339Z,101042.59
2023-05-21T00:33:02.399Z,101035.50
2023-05-21T00:35:29.394Z,101039.53
2023-05-21T00:37:56.468Z,101044.47
2023-05-21T00:40:23.643Z,101037.84
2023-05-21T00:42:50.321Z,101038.97
2023-05-21T00:45:16.921Z,101028.38
2023-05-21T00:47:44.180Z,101040.50
2023-05-21T00:50:12.214Z,101028.09
2023-05-21T00:52:42.214Z,101033.94
2023-05-21T00:55:10.017Z,101030.06
2023-05-21T00:57:37.261Z,101027.25
2023-05-21T01:00:07.247Z,101022.16
2023-05-21T01:02:34.757Z,101024.72
2023-05-21T01:05:04.137Z,101026.78
2023-05-21T01:07:30.727Z,101024.66
2023-05-21T01:09:57.709Z,101024.13
2023-05-21T01:12:24.438Z,101019.69
2023-05-21T01:14:52.156Z,101011.97
2023-05-21T01:17:20.739Z,101019.06
2023-05-21T01:19:47.877Z,101018.00
2023-05-21T01:22:16.914Z,101006.06
2023-05-21T01:24:48.001Z,101008.69
2023-05-21T01:27:14.624Z,101015.19
2023-05-21T01:29:41.644Z,100999.34
2023-05-21T01:32:29.114Z,101003.47
2023-05-21T01:35:11.152Z,100997.41
2023-05-21T01:37:46.171Z,101003.00
2023-05-21T01:40:35.791Z,100991.34
2023-05-21T01:43:05.682Z,101001.59
2023-05-21T01:45:36.755Z,100991.38
2023-05-21T01:48:05.863Z,100998.88
2023-05-21T01:50:33.838Z,100996.88
2023-05-21T01:53:05.772Z,100991.81
2023-05-21T01:55:32.708Z,100996.91
2023-05-21T01:58:02.379Z,100992.16
2023-05-21T02:00:29.514Z,100996.13
2023-05-21T02:02:56.507Z,100998.00
2023-05-21T02:05:23.774Z,100993.28
2023-05-21T02:07:51.983Z,100983.50
2023-05-21T02:10:19.346Z,100990.50
2023-05-21T02:12:46.217Z,100994.72
2023-05-21T02:15:14.227Z,100994.19
2023-05-21T02:17:42.505Z,100989.72
2023-05-21T02:20:12.478Z,100988.53
2023-05-21T02:22:42.401Z,100990.69
2023-05-21T02:25:10.183Z,100986.22
2023-05-21T02:27:37.739Z,100986.97
2023-05-21T02:30:06.832Z,100990.31
2023-05-21T02:32:34.049Z,100984.34
2023-05-21T02:35:03.526Z,100983.97
2023-05-21T02:37:34.759Z,100980.75
2023-05-21T02:40:06.261Z,100981.47
2023-05-21T02:42:33.975Z,100972.50
2023-05-21T02:45:00.646Z,100979.41
2023-05-21T02:47:28.789Z,100973.03
2023-05-21T02:49:55.801Z,100970.25
2023-05-21T02:52:23.855Z,100968.19
2023-05-21T02:54:52.051Z,100974.59
2023-05-21T02:57:18.721Z,100966.16
2023-05-21T02:59:46.012Z,100964.19
2023-05-21T03:02:12.673Z,100957.66
2023-05-21T03:04:46.754Z,100958.31
2023-05-21T03:07:14.601Z,100967.34
2023-05-21T03:09:42.181Z,100958.91
2023-05-21T03:12:09.593Z,100951.47
2023-05-21T03:14:36.566Z,100959.63
2023-05-21T03:17:05.887Z,100950.19
2023-05-21T03:19:36.727Z,100949.50
2023-05-21T03:22:04.918Z,100953.75
2023-05-21T03:24:35.175Z,100950.44
2023-05-21T03:27:06.261Z,100954.09
2023-05-21T03:29:33.798Z,100954.75
2023-05-21T03:32:02.921Z,100947.81
2023-05-21T03:34:31.058Z,100951.59
2023-05-21T03:36:58.238Z,100956.59
2023-05-21T03:39:26.053Z,100958.22
2023-05-21T03:41:54.287Z,100958.78
2023-05-21T03:44:32.287Z,100958.50
2023-05-21T03:47:11.796Z,100965.25
2023-05-21T03:49:38.789Z,100955.34
2023-05-21T03:52:06.470Z,100962.72
2023-05-21T03:54:33.704Z,100956.78
2023-05-21T03:57:04.927Z,100958.09
2023-05-21T03:59:32.567Z,100949.78
2023-05-21T04:02:00.252Z,100941.44
2023-05-21T04:04:29.290Z,100949.63
2023-05-21T04:06:56.633Z,100949.44
2023-05-21T04:09:23.203Z,100957.28
2023-05-21T04:11:51.852Z,100957.47
2023-05-21T04:14:18.857Z,100961.50
2023-05-21T04:16:45.838Z,100956.81
2023-05-21T04:19:12.527Z,100959.84
2023-05-21T04:21:40.335Z,100968.09
2023-05-21T04:24:07.676Z,100964.84
2023-05-21T04:27:01.200Z,100958.13
2023-05-21T04:29:31.408Z,100957.09
2023-05-21T04:31:58.078Z,100952.88
2023-05-21T04:34:24.807Z,100964.03
2023-05-21T04:36:51.985Z,100969.25
2023-05-21T04:39:19.009Z,100967.66
2023-05-21T04:41:45.640Z,100968.97
2023-05-21T04:44:14.729Z,100964.97
2023-05-21T04:46:45.967Z,100963.72
2023-05-21T04:49:12.694Z,100964.91
2023-05-21T04:51:39.917Z,100965.72
2023-05-21T04:54:06.662Z,100967.22
2023-05-21T04:56:34.635Z,100963.50
2023-05-21T04:59:04.671Z,100961.03
2023-05-21T05:01:35.117Z,100963.50
2023-05-21T05:04:01.979Z,100958.50
2023-05-21T05:06:29.096Z,100962.41
2023-05-21T05:08:55.747Z,100955.56
2023-05-21T05:11:23.424Z,100961.16
2023-05-21T05:13:52.348Z,100953.69
2023-05-21T05:16:24.953Z,100952.69
2023-05-21T05:18:52.670Z,100944.88
2023-05-21T05:21:20.356Z,100955.88
2023-05-21T05:23:47.829Z,100955.41
2023-05-21T05:26:14.490Z,100960.84
2023-05-21T05:28:41.717Z,100957.19
2023-05-21T05:31:08.852Z,100961.09
2023-05-21T05:33:35.599Z,100960.22
2023-05-21T05:36:02.276Z,100960.38
2023-05-21T05:38:30.051Z,100964.69
2023-05-21T05:40:56.700Z,100963.06
2023-05-21T05:43:25.549Z,100964.38
2023-05-21T05:45:52.880Z,100959.50
2023-05-21T05:48:19.934Z,100955.69
2023-05-21T05:50:47.455Z,100962.56
2023-05-21T05:53:14.682Z,100949.38
2023-05-21T05:55:41.381Z,100964.59
2023-05-21T05:58:08.037Z,100957.00
2023-05-21T06:00:47.708Z,100959.47
2023-05-21T06:03:14.562Z,100963.47
2023-05-21T06:05:42.395Z,100955.56
2023-05-21T06:08:09.009Z,100955.69
2023-05-21T06:10:35.575Z,100955.22
2023-05-21T06:13:03.551Z,100959.66
2023-05-21T06:15:30.354Z,100950.31
2023-05-21T06:17:57.076Z,100956.75
2023-05-21T06:20:23.769Z,100950.00
2023-05-21T06:22:50.720Z,100953.09
2023-05-21T06:25:18.250Z,100947.84
2023-05-21T06:27:45.007Z,100966.88
2023-05-21T06:30:18.410Z,100970.63
2023-05-21T06:32:45.176Z,100965.72
2023-05-21T06:35:12.301Z,100968.59
2023-05-21T06:37:38.942Z,100974.66
2023-05-21T06:40:06.572Z,100970.56
2023-05-21T06:42:33.575Z,100963.81
2023-05-21T06:45:19.053Z,100960.78
2023-05-21T06:47:46.156Z,100974.03
2023-05-21T06:50:13.332Z,100980.94
2023-05-21T06:52:40.192Z,100975.66
2023-05-21T06:55:07.561Z,100967.38
2023-05-21T06:57:54.374Z,100962.09
2023-05-21T07:00:21.265Z,100967.59
2023-05-21T07:02:48.544Z,100974.06
2023-05-21T07:05:15.915Z,100958.88
2023-05-21T07:07:42.566Z,100946.97
2023-05-21T07:10:10.351Z,100947.28
2023-05-21T07:12:38.209Z,100937.22
2023-05-21T07:15:05.123Z,100942.75
2023-05-21T07:17:31.963Z,100932.78
2023-05-21T07:19:58.555Z,100937.97
2023-05-21T07:22:28.108Z,100934.63
2023-05-21T07:24:55.161Z,100922.91
2023-05-21T07:27:25.675Z,100928.34
2023-05-21T07:29:54.761Z,100928.53
2023-05-21T07:32:21.723Z,100925.91
2023-05-21T07:34:48.549Z,100925.78
2023-05-21T07:37:15.639Z,100927.84
2023-05-21T07:39:42.198Z,100929.59
2023-05-21T07:42:09.831Z,100925.03
2023-05-21T07:44:36.475Z,100921.78
2023-05-21T07:47:03.183Z,100927.00
2023-05-21T07:49:30.074Z,100917.53
2023-05-21T07:51:57.609Z,100922.31
2023-05-21T07:54:24.600Z,100925.91
2023-05-21T07:56:51.247Z,100923.78
2023-05-21T07:59:44.084Z,100924.00
2023-05-21T08:02:11.503Z,100926.69
2023-05-21T08:04:41.018Z,100932.41
2023-05-21T08:07:09.646Z,100929.06
2023-05-21T08:09:36.615Z,100926.25
2023-05-21T08:12:03.370Z,100923.09
2023-05-21T08:14:30.370Z,100925.41
2023-05-21T08:16:57.179Z,100921.50
2023-05-21T08:19:23.936Z,100917.63
2023-05-21T08:21:52.849Z,100923.78
2023-05-21T08:24:20.962Z,100927.00
2023-05-21T08:26:49.806Z,100927.09
2023-05-21T08:29:16.714Z,100920.16
2023-05-21T08:31:43.372Z,100917.97
2023-05-21T08:34:10.376Z,100919.19
2023-05-21T08:36:48.300Z,100915.03
2023-05-21T08:39:35.151Z,100919.91
2023-05-21T08:42:32.781Z,100922.66
2023-05-21T08:45:06.636Z,100923.34
2023-05-21T08:47:36.311Z,100917.09
2023-05-21T08:50:05.762Z,100914.78
2023-05-21T08:52:32.461Z,100917.00
2023-05-21T08:55:00.267Z,100923.09
2023-05-21T08:57:28.101Z,100924.44
2023-05-21T08:59:55.882Z,100919.28
2023-05-21T09:02:26.548Z,100921.78
2023-05-21T09:04:57.273Z,100923.81
2023-05-21T09:07:29.035Z,100931.34
2023-05-21T09:10:14.893Z,100931.28
2023-05-21T09:12:42.297Z,100933.00
2023-05-21T09:15:10.291Z,100926.59
2023-05-21T09:17:38.165Z,100926.25
2023-05-21T09:20:25.771Z,100920.34
2023-05-21T09:22:56.925Z,100924.06
2023-05-21T09:25:28.130Z,100913.16
2023-05-21T09:27:56.951Z,100913.78
2023-05-21T09:30:26.818Z,100910.84
2023-05-21T09:32:57.541Z,100917.09
2023-05-21T09:35:24.927Z,100923.00
2023-05-21T09:37:53.247Z,100912.38
2023-05-21T09:40:22.612Z,100928.47
2023-05-21T09:42:55.001Z,100928.69
2023-05-21T09:45:23.479Z,100929.31
2023-05-21T09:47:53.735Z,100921.84
2023-05-21T09:50:31.430Z,100909.44
2023-05-21T09:52:58.457Z,100910.06
2023-05-21T09:55:26.962Z,100904.31
2023-05-21T09:57:53.595Z,100900.63
2023-05-21T10:00:25.472Z,100902.75
2023-05-21T10:03:01.196Z,100904.13
2023-05-21T10:05:29.787Z,100909.28
2023-05-21T10:08:04.495Z,100910.44
2023-05-21T10:10:32.767Z,100902.09
2023-05-21T10:13:09.293Z,100902.72
2023-05-21T10:15:43.646Z,100899.19
2023-05-21T10:18:12.347Z,100904.16
2023-05-21T10:20:39.865Z,100903.91
2023-05-21T10:23:07.707Z,100910.44
2023-05-21T10:25:34.996Z,100897.88
2023-05-21T10:28:02.952Z,100902.41
2023-05-21T10:30:29.970Z,100891.28
2023-05-21T10:32:58.459Z,100895.75
2023-05-21T10:35:25.868Z,100894.81
2023-05-21T10:37:54.089Z,100893.56
2023-05-21T10:40:20.914Z,100892.31
2023-05-21T10:43:21.036Z,100890.63
2023-05-21T10:46:11.623Z,100879.84
2023-05-21T10:48:44.732Z,100884.50
2023-05-21T10:51:26.427Z,100880.88
2023-05-21T10:54:27.345Z,100878.59
2023-05-21T10:57:30.424Z,100882.50
2023-05-21T10:59:58.321Z,100878.06
2023-05-21T11:02:27.203Z,100876.78
2023-05-21T11:05:01.186Z,100881.22
2023-05-21T11:07:56.703Z,100879.59
2023-05-21T11:10:39.313Z,100879.03
2023-05-21T11:13:14.033Z,100872.09
2023-05-21T11:16:05.122Z,100877.91
2023-05-21T11:18:37.905Z,100865.75
2023-05-21T11:21:06.310Z,100875.13
2023-05-21T11:23:51.362Z,100871.00
2023-05-21T11:26:26.378Z,100864.09
2023-05-21T11:29:05.453Z,100866.31
2023-05-21T11:31:38.202Z,100862.91
2023-05-21T11:34:10.969Z,100859.25
2023-05-21T11:36:38.864Z,100845.41
2023-05-21T11:39:14.025Z,100853.75
2023-05-21T11:42:04.183Z,100846.34
2023-05-21T11:44:49.205Z,100852.50
2023-05-21T11:47:18.211Z,100839.91
2023-05-21T11:49:46.104Z,100842.69
2023-05-21T11:52:14.179Z,100831.53
2023-05-21T11:54:46.178Z,100832.56
2023-05-21T11:57:17.430Z,100831.50
2023-05-21T11:59:44.951Z,100830.25
2023-05-21T12:02:18.957Z,100830.91
2023-05-21T12:04:50.598Z,100836.47
2023-05-21T12:07:20.612Z,100828.25
2023-05-21T12:09:49.426Z,100831.56
2023-05-21T12:12:18.159Z,100836.94
2023-05-21T12:14:49.056Z,100833.44
2023-05-21T12:17:17.758Z,100835.66
2023-05-21T12:19:46.158Z,100815.72
2023-05-21T12:22:13.052Z,100830.72
2023-05-21T12:24:39.943Z,100820.75
2023-05-21T12:27:09.734Z,100828.16
2023-05-21T12:29:38.747Z,100824.22
2023-05-21T12:32:08.681Z,100829.66
2023-05-21T12:34:38.913Z,100817.59
2023-05-21T12:37:07.734Z,100826.19
2023-05-21T12:39:48.237Z,100830.13
2023-05-21T12:42:15.425Z,100816.59
2023-05-21T12:44:47.449Z,100821.94
2023-05-21T12:47:14.266Z,100814.66
2023-05-21T12:49:46.084Z,100820.78
2023-05-21T12:52:13.498Z,100810.78
2023-05-21T12:54:43.173Z,100815.97
2023-05-21T12:57:20.060Z,100813.09
2023-05-21T12:59:50.041Z,100817.69
2023-05-21T13:02:18.679Z,100807.41
2023-05-21T13:04:45.487Z,100811.66
2023-05-21T13:07:12.683Z,100800.34
2023-05-21T13:09:39.277Z,100805.66
2023-05-21T13:12:06.239Z,100805.69
2023-05-21T13:14:32.855Z,100810.31
2023-05-21T13:16:59.617Z,100806.19
2023-05-21T13:19:26.822Z,100818.13
2023-05-21T13:21:53.704Z,100803.72
2023-05-21T13:24:20.299Z,100810.66
2023-05-21T13:26:47.292Z,100798.75
2023-05-21T13:29:17.426Z,100792.75
2023-05-21T13:31:44.413Z,100794.28
2023-05-21T13:34:12.326Z,100793.16
2023-05-21T13:36:39.837Z,100793.19
2023-05-21T13:39:06.819Z,100802.06
2023-05-21T13:41:33.701Z,100802.78
2023-05-21T13:44:00.350Z,100798.31
2023-05-21T13:46:27.426Z,100790.66
2023-05-21T13:48:54.030Z,100792.50
2023-05-21T13:51:37.521Z,100793.09
2023-05-21T13:54:05.076Z,100795.66
2023-05-21T13:56:34.004Z,100785.66
2023-05-21T13:59:01.505Z,100788.28
2023-05-21T14:01:28.472Z,100784.53
2023-05-21T14:03:55.233Z,100788.22
2023-05-21T14:06:22.226Z,100783.34
2023-05-21T14:08:48.884Z,100787.00
2023-05-21T14:11:15.750Z,100774.84
2023-05-21T14:13:42.320Z,100773.56
2023-05-21T14:16:09.083Z,100780.38
2023-05-21T14:18:35.869Z,100772.28
2023-05-21T14:21:02.456Z,100775.06
2023-05-21T14:23:29.058Z,100767.97
2023-05-21T14:25:55.900Z,100775.06
2023-05-21T14:28:22.456Z,100762.13
2023-05-21T14:30:49.655Z,100780.47
2023-05-21T14:33:16.288Z,100757.88
2023-05-21T14:35:44.255Z,100765.28
2023-05-21T14:38:11.068Z,100771.03
2023-05-21T14:40:38.097Z,100765.47
2023-05-21T14:43:05.660Z,100769.66
2023-05-21T14:45:35.736Z,100779.88
2023-05-21T14:48:08.219Z,100775.88
2023-05-21T14:50:35.843Z,100784.78
2023-05-21T14:53:10.668Z,100778.09
2023-05-21T14:55:41.594Z,100787.19
2023-05-21T14:58:08.934Z,100772.00
2023-05-21T15:00:37.187Z,100782.16
2023-05-21T15:03:05.151Z,100765.03
2023-05-21T15:05:32.473Z,100770.72
2023-05-21T15:07:59.446Z,100765.00
2023-05-21T15:10:27.708Z,100765.50
2023-05-21T15:12:54.684Z,100751.28
2023-05-21T15:15:21.750Z,100769.94
2023-05-21T15:17:49.619Z,100753.72
2023-05-21T15:20:17.530Z,100755.00
2023-05-21T15:22:46.035Z,100757.78
2023-05-21T15:25:13.220Z,100750.44
2023-05-21T15:27:39.951Z,100750.44
2023-05-21T15:30:07.193Z,100754.03
2023-05-21T15:32:34.289Z,100752.44
2023-05-21T15:35:01.385Z,100738.59
2023-05-21T15:37:31.971Z,100752.22
2023-05-21T15:39:58.846Z,100752.16
2023-05-21T15:42:25.802Z,100744.97
2023-05-21T15:44:52.499Z,100737.31
2023-05-21T15:47:19.999Z,100734.81
2023-05-21T15:49:46.748Z,100740.59
2023-05-21T15:52:13.504Z,100731.38
2023-05-21T15:54:40.273Z,100734.38
2023-05-21T15:57:07.469Z,100735.00
2023-05-21T15:59:34.551Z,100727.88
2023-05-21T16:02:01.956Z,100717.66
2023-05-21T16:04:28.690Z,100713.53
2023-05-21T16:06:55.896Z,100713.69
2023-05-21T16:09:22.652Z,100707.56
2023-05-21T16:11:49.393Z,100702.16
2023-05-21T16:14:16.122Z,100706.03
2023-05-21T16:16:43.176Z,100698.06
2023-05-21T16:19:09.961Z,100701.47
2023-05-21T16:21:36.723Z,100698.06
2023-05-21T16:24:04.003Z,100689.13
2023-05-21T16:26:30.711Z,100689.53
2023-05-21T16:28:58.843Z,100689.59
2023-05-21T16:31:25.887Z,100695.16
2023-05-21T16:33:54.329Z,100695.25
2023-05-21T16:36:21.128Z,100686.84
2023-05-21T16:38:47.836Z,100683.19
2023-05-21T16:41:14.770Z,100693.13
2023-05-21T16:43:42.667Z,100675.66
2023-05-21T16:46:10.678Z,100687.84
2023-05-21T16:48:39.288Z,100683.28
2023-05-21T16:51:06.055Z,100679.53
2023-05-21T16:53:32.755Z,100685.84
2023-05-21T16:55:59.474Z,100690.84
2023-05-21T16:58:26.536Z,100681.31
2023-05-21T17:00:53.245Z,100682.44
2023-05-21T17:03:20.177Z,100681.88
2023-05-21T17:05:46.994Z,100687.97
2023-05-21T17:08:13.766Z,100697.91
2023-05-21T17:10:40.593Z,100688.56
2023-05-21T17:13:20.849Z,100694.53
2023-05-21T17:15:50.741Z,100694.47
2023-05-21T17:18:17.809Z,100696.63
2023-05-21T17:20:44.860Z,100696.63
2023-05-21T17:23:12.092Z,100701.50
2023-05-21T17:25:40.197Z,100704.41
2023-05-21T17:28:07.330Z,100707.06
2023-05-21T17:30:34.418Z,100712.53
2023-05-21T17:33:03.531Z,100707.56
2023-05-21T17:35:30.494Z,100712.22
2023-05-21T17:37:57.294Z,100712.06
2023-05-21T17:40:24.898Z,100712.34
2023-05-21T17:42:52.772Z,100710.19
2023-05-21T17:45:19.956Z,100704.13
2023-05-21T17:47:46.679Z,100701.25
2023-05-21T17:50:13.527Z,100694.56
2023-05-21T17:52:40.324Z,100702.75
2023-05-21T17:55:07.794Z,100693.13
2023-05-21T17:57:36.003Z,100694.47
2023-05-21T18:00:05.065Z,100695.03
2023-05-21T18:02:38.956Z,100707.50
2023-05-21T18:05:08.949Z,100700.81
2023-05-21T18:07:36.898Z,100708.03
2023-05-21T18:10:03.843Z,100696.31
2023-05-21T18:12:30.655Z,100691.25
2023-05-21T18:14:57.577Z,100690.78
2023-05-21T18:17:24.437Z,100696.38
2023-05-21T18:19:51.231Z,100692.72
2023-05-21T18:22:18.452Z,100695.66
2023-05-21T18:24:46.196Z,100698.38
2023-05-21T18:27:13.481Z,100696.25
2023-05-21T18:29:40.494Z,100694.31
2023-05-21T18:32:07.864Z,100698.47
2023-05-21T18:34:34.754Z,100698.31
2023-05-21T18:37:01.675Z,100706.06
2023-05-21T18:39:28.959Z,100697.28
2023-05-21T18:42:11.411Z,100689.00
2023-05-21T18:44:41.765Z,100695.16
2023-05-21T18:47:08.552Z,100698.97
2023-05-21T18:49:36.093Z,100695.69
2023-05-21T18:52:04.285Z,100702.28
2023-05-21T18:54:31.422Z,100690.63
2023-05-21T18:57:02.462Z,100690.34
2023-05-21T18:59:29.297Z,100697.84
2023-05-21T19:01:56.132Z,100688.84
2023-05-21T19:04:23.212Z,100688.78
2023-05-21T19:06:50.214Z,100696.25
2023-05-21T19:09:17.248Z,100700.16
2023-05-21T19:11:44.058Z,100689.09
2023-05-21T19:14:10.875Z,100701.81
2023-05-21T19:16:37.738Z,100699.31
2023-05-21T19:19:05.862Z,100704.00
2023-05-21T19:21:33.099Z,100695.66
2023-05-21T19:23:59.851Z,100695.19
2023-05-21T19:26:26.799Z,100703.91
2023-05-21T19:28:54.633Z,100707.25
2023-05-21T19:31:22.534Z,100703.09
2023-05-21T19:33:49.509Z,100713.88
2023-05-21T19:36:16.473Z,100712.72
2023-05-21T19:38:48.193Z,100711.34
2023-05-21T19:41:18.963Z,100719.59
2023-05-21T19:43:46.160Z,100720.38
2023-05-21T19:46:14.323Z,100725.84
2023-05-21T19:48:42.064Z,100716.06
2023-05-21T19:51:08.895Z,100717.38
2023-05-21T19:53:36.128Z,100722.88
2023-05-21T19:56:02.889Z,100716.41
2023-05-21T19:58:30.364Z,100724.19
2023-05-21T20:01:00.378Z,100724.88
2023-05-21T20:03:28.117Z,100717.88
2023-05-21T20:05:54.997Z,100727.19
2023-05-21T20:08:22.269Z,100719.97
2023-05-21T20:10:51.773Z,100721.63
2023-05-21T20:13:19.532Z,100719.50
2023-05-21T20:15:47.666Z,100724.09
2023-05-21T20:18:15.266Z,100721.34
2023-05-21T20:20:43.263Z,100722.06
2023-05-21T20:23:10.408Z,100719.72
2023-05-21T20:25:37.684Z,100720.91
2023-05-21T20:28:05.236Z,100725.75
2023-05-21T20:30:34.457Z,100717.03
2023-05-21T20:33:04.706Z,100716.41
2023-05-21T20:35:31.477Z,100718.97
2023-05-21T20:37:58.842Z,100712.66
2023-05-21T20:40:26.090Z,100713.88
2023-05-21T20:42:53.931Z,100717.53
2023-05-21T20:45:21.913Z,100718.88
2023-05-21T20:47:49.705Z,100724.50
2023-05-21T20:50:18.007Z,100721.19
2023-05-21T20:52:47.133Z,100722.84
2023-05-21T20:55:14.600Z,100720.63
2023-05-21T20:57:41.837Z,100719.09
2023-05-21T21:00:11.302Z,100721.50
2023-05-21T21:02:38.824Z,100726.34
2023-05-21T21:05:06.063Z,100732.72
2023-05-21T21:07:34.082Z,100729.88
2023-05-21T21:10:01.461Z,100731.25
2023-05-21T21:12:28.450Z,100731.22
2023-05-21T21:14:55.375Z,100734.34
2023-05-21T21:17:22.109Z,100730.97
2023-05-21T21:19:48.811Z,100730.53
2023-05-21T21:22:16.135Z,100726.09
2023-05-21T21:24:42.824Z,100721.53
2023-05-21T21:27:09.451Z,100735.44
2023-05-21T21:29:36.225Z,100738.94
2023-05-21T21:32:02.858Z,100726.91
2023-05-21T21:34:29.865Z,100728.06
2023-05-21T21:36:56.463Z,100735.53
2023-05-21T21:39:23.123Z,100732.44
2023-05-21T21:41:49.757Z,100737.09
2023-05-21T21:44:16.346Z,100737.91
2023-05-21T21:46:42.906Z,100732.06
2023-05-21T21:49:09.471Z,100726.84
2023-05-21T21:51:37.179Z,100728.06
2023-05-21T21:54:04.049Z,100721.38
2023-05-21T21:56:31.408Z,100725.25
2023-05-21T21:58:57.951Z,100724.94
2023-05-21T22:01:24.947Z,100730.09
2023-05-21T22:03:51.547Z,100724.44
2023-05-21T22:06:18.225Z,100729.53
2023-05-21T22:08:44.917Z,100726.09
2023-05-21T22:11:11.727Z,100731.53
2023-05-21T22:13:41.468Z,100725.25
2023-05-21T22:16:08.089Z,100732.19
2023-05-21T22:18:40.073Z,100730.88
2023-05-21T22:21:09.538Z,100730.91
2023-05-21T22:23:38.222Z,100729.56
2023-05-21T22:26:04.946Z,100727.91
2023-05-21T22:28:31.546Z,100725.47
2023-05-21T22:30:58.964Z,100722.59
2023-05-21T22:33:26.599Z,100727.28
2023-05-21T22:35:54.139Z,100728.56
2023-05-21T22:38:20.901Z,100732.34
2023-05-21T22:40:47.965Z,100728.06
2023-05-21T22:43:14.658Z,100726.47
2023-05-21T22:45:41.233Z,100730.03
2023-05-21T22:48:09.462Z,100728.38
2023-05-21T22:50:38.839Z,100726.63
2023-05-21T22:53:06.816Z,100729.00
2023-05-21T22:55:33.441Z,100728.63
2023-05-21T22:58:00.098Z,100737.31
2023-05-21T23:00:27.580Z,100727.28
2023-05-21T23:02:54.906Z,100736.25
2023-05-21T23:05:22.591Z,100730.50
2023-05-21T23:07:49.669Z,100725.56
2023-05-21T23:10:16.569Z,100722.41
2023-05-21T23:12:43.301Z,100724.72
2023-05-21T23:15:10.667Z,100727.91
2023-05-21T23:17:37.872Z,100732.81
2023-05-21T23:20:06.002Z,100729.53
2023-05-21T23:22:32.735Z,100719.28
2023-05-21T23:24:59.333Z,100725.44
2023-05-21T23:27:25.897Z,100728.69
2023-05-21T23:29:52.455Z,100730.91
2023-05-21T23:32:19.259Z,100726.59
2023-05-21T23:34:46.704Z,100728.56
2023-05-21T23:37:13.293Z,100724.31
2023-05-21T23:39:39.927Z,100719.69
2023-05-21T23:42:06.757Z,100720.38
2023-05-21T23:44:33.347Z,100711.16
2023-05-21T23:46:59.954Z,100711.78
2023-05-21T23:49:26.569Z,100701.50
2023-05-21T23:51:53.751Z,100703.97
2023-05-21T23:54:20.364Z,100703.81
2023-05-21T23:56:46.975Z,100700.16
2023-05-21T23:59:15.107Z,100700.88
